sensor_id;sensor_type;location;lat;lon;timestamp;temperature;humidity
20174;DHT22;10246;50.620;7.232;2023-04-06T00:00:14;3.90;1.00
20174;DHT22;10246;50.620;7.232;2023-04-06T00:02:49;3.80;1.00
20174;DHT22;10246;50.620;7.232;2023-04-06T00:05:16;3.90;1.00
20174;DHT22;10246;50.620;7.232;2023-04-06T00:07:43;3.90;1.00
20174;DHT22;10246;50.620;7.232;2023-04-06T00:10:12;3.90;1.00
20174;DHT22;10246;50.620;7.232;2023-04-06T00:12:45;4.00;1.00
20174;DHT22;10246;50.620;7.232;2023-04-06T00:15:14;3.90;1.00
20174;DHT22;10246;50.620;7.232;2023-04-06T00:17:42;3.90;1.00
20174;DHT22;10246;50.620;7.232;2023-04-06T00:20:12;3.90;1.00
20174;DHT22;10246;50.620;7.232;2023-04-06T00:22:40;3.90;1.00
20174;DHT22;10246;50.620;7.232;2023-04-06T00:25:12;4.00;1.00
20174;DHT22;10246;50.620;7.232;2023-04-06T00:27:42;3.90;1.00
20174;DHT22;10246;50.620;7.232;2023-04-06T00:30:11;3.90;1.00
20174;DHT22;10246;50.620;7.232;2023-04-06T00:32:40;3.90;1.00
20174;DHT22;10246;50.620;7.232;2023-04-06T00:35:13;3.90;1.00
20174;DHT22;10246;50.620;7.232;2023-04-06T00:37:40;3.90;1.00
20174;DHT22;10246;50.620;7.232;2023-04-06T00:40:10;3.80;1.00
20174;DHT22;10246;50.620;7.232;2023-04-06T00:42:38;3.70;1.00
20174;DHT22;10246;50.620;7.232;2023-04-06T00:45:07;3.70;1.00
20174;DHT22;10246;50.620;7.232;2023-04-06T00:47:34;3.70;1.00
20174;DHT22;10246;50.620;7.232;2023-04-06T00:50:04;3.60;1.00
20174;DHT22;10246;50.620;7.232;2023-04-06T00:52:34;3.50;1.00
20174;DHT22;10246;50.620;7.232;2023-04-06T00:55:01;3.50;1.00
20174;DHT22;10246;50.620;7.232;2023-04-06T00:57:30;3.50;1.00
20174;DHT22;10246;50.620;7.232;2023-04-06T01:00:03;3.50;1.00
20174;DHT22;10246;50.620;7.232;2023-04-06T01:02:31;3.50;1.00
20174;DHT22;10246;50.620;7.232;2023-04-06T01:04:59;3.30;1.00
20174;DHT22;10246;50.620;7.232;2023-04-06T01:07:32;3.30;1.00
20174;DHT22;10246;50.620;7.232;2023-04-06T01:10:01;3.20;1.00
20174;DHT22;10246;50.620;7.232;2023-04-06T01:12:31;3.20;1.00
20174;DHT22;10246;50.620;7.232;2023-04-06T01:14:58;3.10;1.00
20174;DHT22;10246;50.620;7.232;2023-04-06T01:17:27;3.00;1.00
20174;DHT22;10246;50.620;7.232;2023-04-06T01:19:54;3.00;1.00
20174;DHT22;10246;50.620;7.232;2023-04-06T01:22:27;3.10;1.00
20174;DHT22;10246;50.620;7.232;2023-04-06T01:24:54;3.20;1.00
20174;DHT22;10246;50.620;7.232;2023-04-06T01:27:25;3.20;1.00
20174;DHT22;10246;50.620;7.232;2023-04-06T01:29:55;3.10;1.00
20174;DHT22;10246;50.620;7.232;2023-04-06T01:32:22;3.00;1.00
20174;DHT22;10246;50.620;7.232;2023-04-06T01:34:54;3.00;1.00
20174;DHT22;10246;50.620;7.232;2023-04-06T01:37:21;3.10;1.00
20174;DHT22;10246;50.620;7.232;2023-04-06T01:39:54;3.10;1.00
20174;DHT22;10246;50.620;7.232;2023-04-06T01:42:24;3.10;1.00
20174;DHT22;10246;50.620;7.232;2023-04-06T01:44:53;3.10;1.00
20174;DHT22;10246;50.620;7.232;2023-04-06T01:47:20;3.00;1.00
20174;DHT22;10246;50.620;7.232;2023-04-06T01:49:52;2.90;1.00
20174;DHT22;10246;50.620;7.232;2023-04-06T01:52:19;2.90;1.00
20174;DHT22;10246;50.620;7.232;2023-04-06T01:54:52;2.90;1.00
20174;DHT22;10246;50.620;7.232;2023-04-06T01:57:22;2.80;1.00
20174;DHT22;10246;50.620;7.232;2023-04-06T01:59:53;2.80;1.00
20174;DHT22;10246;50.620;7.232;2023-04-06T02:02:25;2.80;1.00
20174;DHT22;10246;50.620;7.232;2023-04-06T02:04:52;2.80;1.00
20174;DHT22;10246;50.620;7.232;2023-04-06T02:07:19;2.90;1.00
20174;DHT22;10246;50.620;7.232;2023-04-06T02:09:58;2.80;1.00
20174;DHT22;10246;50.620;7.232;2023-04-06T02:12:28;2.70;1.00
20174;DHT22;10246;50.620;7.232;2023-04-06T02:14:55;2.70;1.00
20174;DHT22;10246;50.620;7.232;2023-04-06T02:17:23;2.80;1.00
20174;DHT22;10246;50.620;7.232;2023-04-06T02:19:50;2.80;1.00
20174;DHT22;10246;50.620;7.232;2023-04-06T02:22:17;2.80;1.00
20174;DHT22;10246;50.620;7.232;2023-04-06T02:24:47;2.70;1.00
20174;DHT22;10246;50.620;7.232;2023-04-06T02:27:16;2.70;1.00
20174;DHT22;10246;50.620;7.232;2023-04-06T02:29:46;2.80;1.00
20174;DHT22;10246;50.620;7.232;2023-04-06T02:32:12;2.80;1.00
20174;DHT22;10246;50.620;7.232;2023-04-06T02:34:41;2.70;1.00
20174;DHT22;10246;50.620;7.232;2023-04-06T02:37:08;2.70;1.00
20174;DHT22;10246;50.620;7.232;2023-04-06T02:39:39;2.80;1.00
20174;DHT22;10246;50.620;7.232;2023-04-06T02:42:06;2.80;1.00
20174;DHT22;10246;50.620;7.232;2023-04-06T02:44:40;2.80;1.00
20174;DHT22;10246;50.620;7.232;2023-04-06T02:47:06;2.70;1.00
20174;DHT22;10246;50.620;7.232;2023-04-06T02:49:33;2.70;1.00
20174;DHT22;10246;50.620;7.232;2023-04-06T02:52:00;2.60;1.00
20174;DHT22;10246;50.620;7.232;2023-04-06T02:54:28;2.60;1.00
20174;DHT22;10246;50.620;7.232;2023-04-06T02:56:55;2.60;1.00
20174;DHT22;10246;50.620;7.232;2023-04-06T02:59:25;2.60;1.00
20174;DHT22;10246;50.620;7.232;2023-04-06T03:02:00;2.50;1.00
20174;DHT22;10246;50.620;7.232;2023-04-06T03:04:28;2.40;1.00
20174;DHT22;10246;50.620;7.232;2023-04-06T03:06:57;2.40;1.00
20174;DHT22;10246;50.620;7.232;2023-04-06T03:09:25;2.40;1.00
20174;DHT22;10246;50.620;7.232;2023-04-06T03:11:52;2.40;1.00
20174;DHT22;10246;50.620;7.232;2023-04-06T03:14:23;2.30;1.00
20174;DHT22;10246;50.620;7.232;2023-04-06T03:16:51;2.20;1.00
20174;DHT22;10246;50.620;7.232;2023-04-06T03:19:21;2.10;1.00
20174;DHT22;10246;50.620;7.232;2023-04-06T03:21:48;2.10;1.00
20174;DHT22;10246;50.620;7.232;2023-04-06T03:24:17;2.10;1.00
20174;DHT22;10246;50.620;7.232;2023-04-06T03:26:45;2.10;1.00
20174;DHT22;10246;50.620;7.232;2023-04-06T03:29:13;2.10;1.00
20174;DHT22;10246;50.620;7.232;2023-04-06T03:31:44;2.10;1.00
20174;DHT22;10246;50.620;7.232;2023-04-06T03:34:13;2.00;1.00
20174;DHT22;10246;50.620;7.232;2023-04-06T03:36:41;2.00;1.00
20174;DHT22;10246;50.620;7.232;2023-04-06T03:39:08;2.00;1.00
20174;DHT22;10246;50.620;7.232;2023-04-06T03:41:35;2.00;1.00
20174;DHT22;10246;50.620;7.232;2023-04-06T03:44:05;2.00;1.00
20174;DHT22;10246;50.620;7.232;2023-04-06T03:46:35;2.10;1.00
20174;DHT22;10246;50.620;7.232;2023-04-06T03:49:04;2.10;1.00
20174;DHT22;10246;50.620;7.232;2023-04-06T03:51:31;2.20;1.00
20174;DHT22;10246;50.620;7.232;2023-04-06T03:53:59;2.20;1.00
20174;DHT22;10246;50.620;7.232;2023-04-06T03:56:28;2.20;1.00
20174;DHT22;10246;50.620;7.232;2023-04-06T03:58:55;2.20;1.00
20174;DHT22;10246;50.620;7.232;2023-04-06T04:01:24;2.20;1.00
20174;DHT22;10246;50.620;7.232;2023-04-06T04:03:51;2.30;1.00
20174;DHT22;10246;50.620;7.232;2023-04-06T04:06:19;2.30;1.00
20174;DHT22;10246;50.620;7.232;2023-04-06T04:08:48;2.20;1.00
20174;DHT22;10246;50.620;7.232;2023-04-06T04:11:22;2.20;1.00
20174;DHT22;10246;50.620;7.232;2023-04-06T04:13:49;2.10;1.00
20174;DHT22;10246;50.620;7.232;2023-04-06T04:16:16;2.20;1.00
20174;DHT22;10246;50.620;7.232;2023-04-06T04:18:45;2.20;1.00
20174;DHT22;10246;50.620;7.232;2023-04-06T04:21:14;2.10;1.00
20174;DHT22;10246;50.620;7.232;2023-04-06T04:23:44;2.00;1.00
20174;DHT22;10246;50.620;7.232;2023-04-06T04:26:14;2.10;1.00
20174;DHT22;10246;50.620;7.232;2023-04-06T04:28:43;2.10;1.00
20174;DHT22;10246;50.620;7.232;2023-04-06T04:31:12;2.10;1.00
20174;DHT22;10246;50.620;7.232;2023-04-06T04:33:40;2.00;1.00
20174;DHT22;10246;50.620;7.232;2023-04-06T04:36:07;2.10;1.00
20174;DHT22;10246;50.620;7.232;2023-04-06T04:38:35;2.00;1.00
20174;DHT22;10246;50.620;7.232;2023-04-06T04:41:05;2.00;1.00
20174;DHT22;10246;50.620;7.232;2023-04-06T04:43:35;2.10;1.00
20174;DHT22;10246;50.620;7.232;2023-04-06T04:46:04;2.00;1.00
20174;DHT22;10246;50.620;7.232;2023-04-06T04:48:32;2.00;1.00
20174;DHT22;10246;50.620;7.232;2023-04-06T04:51:04;2.00;1.00
20174;DHT22;10246;50.620;7.232;2023-04-06T04:53:32;2.00;1.00
20174;DHT22;10246;50.620;7.232;2023-04-06T04:55:59;2.00;1.00
20174;DHT22;10246;50.620;7.232;2023-04-06T04:58:26;2.00;1.00
20174;DHT22;10246;50.620;7.232;2023-04-06T05:00:55;1.90;1.00
20174;DHT22;10246;50.620;7.232;2023-04-06T05:03:26;1.90;1.00
20174;DHT22;10246;50.620;7.232;2023-04-06T05:05:54;1.80;1.00
20174;DHT22;10246;50.620;7.232;2023-04-06T05:08:24;1.80;1.00
20174;DHT22;10246;50.620;7.232;2023-04-06T05:10:52;1.80;1.00
20174;DHT22;10246;50.620;7.232;2023-04-06T05:13:20;1.80;1.00
20174;DHT22;10246;50.620;7.232;2023-04-06T05:15:48;1.80;1.00
20174;DHT22;10246;50.620;7.232;2023-04-06T05:18:15;1.80;1.00
20174;DHT22;10246;50.620;7.232;2023-04-06T05:20:46;1.80;1.00
20174;DHT22;10246;50.620;7.232;2023-04-06T05:23:14;1.80;1.00
20174;DHT22;10246;50.620;7.232;2023-04-06T05:25:45;1.80;1.00
20174;DHT22;10246;50.620;7.232;2023-04-06T05:28:16;1.80;1.00
20174;DHT22;10246;50.620;7.232;2023-04-06T05:30:43;1.90;1.00
20174;DHT22;10246;50.620;7.232;2023-04-06T05:33:11;1.90;1.00
20174;DHT22;10246;50.620;7.232;2023-04-06T05:35:41;1.90;1.00
20174;DHT22;10246;50.620;7.232;2023-04-06T05:38:09;1.90;1.00
20174;DHT22;10246;50.620;7.232;2023-04-06T05:40:37;1.90;1.00
20174;DHT22;10246;50.620;7.232;2023-04-06T05:43:06;1.90;1.00
20174;DHT22;10246;50.620;7.232;2023-04-06T05:45:34;1.90;1.00
20174;DHT22;10246;50.620;7.232;2023-04-06T05:48:02;1.80;1.00
20174;DHT22;10246;50.620;7.232;2023-04-06T05:50:29;1.70;1.00
20174;DHT22;10246;50.620;7.232;2023-04-06T05:52:57;1.80;1.00
20174;DHT22;10246;50.620;7.232;2023-04-06T05:55:25;1.80;1.00
20174;DHT22;10246;50.620;7.232;2023-04-06T05:57:54;1.90;1.00
20174;DHT22;10246;50.620;7.232;2023-04-06T06:00:22;2.00;1.00
20174;DHT22;10246;50.620;7.232;2023-04-06T06:02:51;2.10;1.00
20174;DHT22;10246;50.620;7.232;2023-04-06T06:05:18;2.10;1.00
20174;DHT22;10246;50.620;7.232;2023-04-06T06:07:45;2.20;1.00
20174;DHT22;10246;50.620;7.232;2023-04-06T06:10:14;2.20;1.00
20174;DHT22;10246;50.620;7.232;2023-04-06T06:12:44;2.20;1.00
20174;DHT22;10246;50.620;7.232;2023-04-06T06:15:12;2.20;1.00
20174;DHT22;10246;50.620;7.232;2023-04-06T06:17:39;2.30;1.00
20174;DHT22;10246;50.620;7.232;2023-04-06T06:20:07;2.30;1.00
20174;DHT22;10246;50.620;7.232;2023-04-06T06:22:35;2.30;1.00
20174;DHT22;10246;50.620;7.232;2023-04-06T06:25:03;2.40;1.00
20174;DHT22;10246;50.620;7.232;2023-04-06T06:27:32;2.40;1.00
20174;DHT22;10246;50.620;7.232;2023-04-06T06:30:07;2.50;1.00
20174;DHT22;10246;50.620;7.232;2023-04-06T06:32:36;2.50;1.00
20174;DHT22;10246;50.620;7.232;2023-04-06T06:35:04;2.70;1.00
20174;DHT22;10246;50.620;7.232;2023-04-06T06:37:31;2.70;1.00
20174;DHT22;10246;50.620;7.232;2023-04-06T06:39:59;2.80;1.00
20174;DHT22;10246;50.620;7.232;2023-04-06T06:42:27;2.80;1.00
20174;DHT22;10246;50.620;7.232;2023-04-06T06:44:57;2.90;1.00
20174;DHT22;10246;50.620;7.232;2023-04-06T06:47:30;3.00;1.00
20174;DHT22;10246;50.620;7.232;2023-04-06T06:49:57;3.00;1.00
20174;DHT22;10246;50.620;7.232;2023-04-06T06:52:25;3.20;1.00
20174;DHT22;10246;50.620;7.232;2023-04-06T06:54:54;3.30;1.00
20174;DHT22;10246;50.620;7.232;2023-04-06T06:57:22;3.30;1.00
20174;DHT22;10246;50.620;7.232;2023-04-06T06:59:49;3.50;1.00
20174;DHT22;10246;50.620;7.232;2023-04-06T07:02:16;3.60;1.00
20174;DHT22;10246;50.620;7.232;2023-04-06T07:04:47;3.70;1.00
20174;DHT22;10246;50.620;7.232;2023-04-06T07:07:15;3.90;1.00
20174;DHT22;10246;50.620;7.232;2023-04-06T07:09:42;4.10;1.00
20174;DHT22;10246;50.620;7.232;2023-04-06T07:12:10;4.30;1.00
20174;DHT22;10246;50.620;7.232;2023-04-06T07:14:37;4.40;1.00
20174;DHT22;10246;50.620;7.232;2023-04-06T07:17:04;4.50;1.00
20174;DHT22;10246;50.620;7.232;2023-04-06T07:19:32;4.80;1.00
20174;DHT22;10246;50.620;7.232;2023-04-06T07:22:03;4.90;1.00
20174;DHT22;10246;50.620;7.232;2023-04-06T07:24:30;5.00;1.00
20174;DHT22;10246;50.620;7.232;2023-04-06T07:26:59;5.20;1.00
20174;DHT22;10246;50.620;7.232;2023-04-06T07:29:29;5.30;1.00
20174;DHT22;10246;50.620;7.232;2023-04-06T07:31:56;5.50;1.00
20174;DHT22;10246;50.620;7.232;2023-04-06T07:34:26;5.70;1.00
20174;DHT22;10246;50.620;7.232;2023-04-06T07:36:53;5.90;1.00
20174;DHT22;10246;50.620;7.232;2023-04-06T07:39:21;6.00;1.00
20174;DHT22;10246;50.620;7.232;2023-04-06T07:41:52;6.30;1.00
20174;DHT22;10246;50.620;7.232;2023-04-06T07:44:20;6.50;1.00
20174;DHT22;10246;50.620;7.232;2023-04-06T07:46:49;6.70;1.00
20174;DHT22;10246;50.620;7.232;2023-04-06T07:49:19;6.90;1.00
20174;DHT22;10246;50.620;7.232;2023-04-06T07:51:48;7.10;1.00
20174;DHT22;10246;50.620;7.232;2023-04-06T07:54:15;7.30;1.00
20174;DHT22;10246;50.620;7.232;2023-04-06T07:56:45;7.50;1.00
20174;DHT22;10246;50.620;7.232;2023-04-06T07:59:13;7.70;1.00
20174;DHT22;10246;50.620;7.232;2023-04-06T08:01:40;8.00;1.00
20174;DHT22;10246;50.620;7.232;2023-04-06T08:04:09;8.10;1.00
20174;DHT22;10246;50.620;7.232;2023-04-06T08:06:39;8.30;1.00
20174;DHT22;10246;50.620;7.232;2023-04-06T08:09:07;8.60;1.00
20174;DHT22;10246;50.620;7.232;2023-04-06T08:11:35;8.90;1.00
20174;DHT22;10246;50.620;7.232;2023-04-06T08:14:04;9.00;1.00
20174;DHT22;10246;50.620;7.232;2023-04-06T08:16:31;9.20;1.00
20174;DHT22;10246;50.620;7.232;2023-04-06T08:19:00;9.30;1.00
20174;DHT22;10246;50.620;7.232;2023-04-06T08:21:27;9.60;1.00
20174;DHT22;10246;50.620;7.232;2023-04-06T08:23:54;9.70;1.00
20174;DHT22;10246;50.620;7.232;2023-04-06T08:26:22;9.80;1.00
20174;DHT22;10246;50.620;7.232;2023-04-06T08:28:51;9.80;1.00
20174;DHT22;10246;50.620;7.232;2023-04-06T08:31:22;9.70;1.00
20174;DHT22;10246;50.620;7.232;2023-04-06T08:33:51;9.80;1.00
20174;DHT22;10246;50.620;7.232;2023-04-06T08:36:20;9.90;1.00
20174;DHT22;10246;50.620;7.232;2023-04-06T08:38:49;9.90;1.00
20174;DHT22;10246;50.620;7.232;2023-04-06T08:41:17;10.00;1.00
20174;DHT22;10246;50.620;7.232;2023-04-06T08:43:47;10.10;1.00
20174;DHT22;10246;50.620;7.232;2023-04-06T08:46:17;10.10;1.00
20174;DHT22;10246;50.620;7.232;2023-04-06T08:48:48;10.30;1.00
20174;DHT22;10246;50.620;7.232;2023-04-06T08:51:16;10.40;1.00
20174;DHT22;10246;50.620;7.232;2023-04-06T08:53:44;10.60;1.00
20174;DHT22;10246;50.620;7.232;2023-04-06T08:56:15;10.80;1.00
20174;DHT22;10246;50.620;7.232;2023-04-06T08:58:42;11.00;1.00
20174;DHT22;10246;50.620;7.232;2023-04-06T09:01:12;11.10;1.00
20174;DHT22;10246;50.620;7.232;2023-04-06T09:03:40;11.30;1.00
20174;DHT22;10246;50.620;7.232;2023-04-06T09:06:13;11.40;1.00
20174;DHT22;10246;50.620;7.232;2023-04-06T09:08:45;11.40;1.00
20174;DHT22;10246;50.620;7.232;2023-04-06T09:11:17;11.40;1.00
20174;DHT22;10246;50.620;7.232;2023-04-06T09:13:47;11.50;1.00
20174;DHT22;10246;50.620;7.232;2023-04-06T09:16:17;11.50;1.00
20174;DHT22;10246;50.620;7.232;2023-04-06T09:18:46;11.70;1.00
20174;DHT22;10246;50.620;7.232;2023-04-06T09:21:17;11.80;1.00
20174;DHT22;10246;50.620;7.232;2023-04-06T09:23:45;11.90;1.00
20174;DHT22;10246;50.620;7.232;2023-04-06T09:26:17;12.00;1.00
20174;DHT22;10246;50.620;7.232;2023-04-06T09:28:45;12.20;1.00
20174;DHT22;10246;50.620;7.232;2023-04-06T09:31:13;12.30;1.00
20174;DHT22;10246;50.620;7.232;2023-04-06T09:33:44;12.50;1.00
20174;DHT22;10246;50.620;7.232;2023-04-06T09:36:12;12.70;1.00
20174;DHT22;10246;50.620;7.232;2023-04-06T09:38:54;12.80;1.00
20174;DHT22;10246;50.620;7.232;2023-04-06T09:41:23;12.80;1.00
20174;DHT22;10246;50.620;7.232;2023-04-06T09:44:02;13.00;1.00
20174;DHT22;10246;50.620;7.232;2023-04-06T09:46:32;12.90;1.00
20174;DHT22;10246;50.620;7.232;2023-04-06T09:49:02;13.00;1.00
20174;DHT22;10246;50.620;7.232;2023-04-06T09:51:31;13.10;1.00
20174;DHT22;10246;50.620;7.232;2023-04-06T09:54:01;13.10;1.00
20174;DHT22;10246;50.620;7.232;2023-04-06T09:56:39;13.20;1.00
20174;DHT22;10246;50.620;7.232;2023-04-06T09:59:14;13.30;1.00
20174;DHT22;10246;50.620;7.232;2023-04-06T10:01:46;13.40;1.00
20174;DHT22;10246;50.620;7.232;2023-04-06T10:04:24;13.70;1.00
20174;DHT22;10246;50.620;7.232;2023-04-06T10:06:59;13.90;1.00
20174;DHT22;10246;50.620;7.232;2023-04-06T10:09:29;14.00;1.00
20174;DHT22;10246;50.620;7.232;2023-04-06T10:12:03;14.20;1.00
20174;DHT22;10246;50.620;7.232;2023-04-06T10:14:33;14.20;1.00
20174;DHT22;10246;50.620;7.232;2023-04-06T10:17:02;14.20;1.00
20174;DHT22;10246;50.620;7.232;2023-04-06T10:19:36;14.30;1.00
20174;DHT22;10246;50.620;7.232;2023-04-06T10:22:08;14.40;1.00
20174;DHT22;10246;50.620;7.232;2023-04-06T10:24:44;14.40;1.00
20174;DHT22;10246;50.620;7.232;2023-04-06T10:27:15;14.40;1.00
20174;DHT22;10246;50.620;7.232;2023-04-06T10:29:47;14.40;1.00
20174;DHT22;10246;50.620;7.232;2023-04-06T10:32:17;14.50;1.00
20174;DHT22;10246;50.620;7.232;2023-04-06T10:34:46;14.40;1.00
20174;DHT22;10246;50.620;7.232;2023-04-06T10:37:16;14.50;1.00
20174;DHT22;10246;50.620;7.232;2023-04-06T10:39:52;14.60;1.00
20174;DHT22;10246;50.620;7.232;2023-04-06T10:42:24;14.70;1.00
20174;DHT22;10246;50.620;7.232;2023-04-06T10:44:53;14.70;1.00
20174;DHT22;10246;50.620;7.232;2023-04-06T10:47:25;14.80;1.00
20174;DHT22;10246;50.620;7.232;2023-04-06T10:49:52;14.80;1.00
20174;DHT22;10246;50.620;7.232;2023-04-06T10:52:20;14.90;1.00
20174;DHT22;10246;50.620;7.232;2023-04-06T10:54:55;14.90;1.00
20174;DHT22;10246;50.620;7.232;2023-04-06T10:57:29;14.90;1.00
20174;DHT22;10246;50.620;7.232;2023-04-06T11:00:03;14.90;1.00
20174;DHT22;10246;50.620;7.232;2023-04-06T11:02:31;14.70;1.00
20174;DHT22;10246;50.620;7.232;2023-04-06T11:04:59;14.70;1.00
20174;DHT22;10246;50.620;7.232;2023-04-06T11:07:28;14.60;1.00
20174;DHT22;10246;50.620;7.232;2023-04-06T11:10:02;14.70;1.00
20174;DHT22;10246;50.620;7.232;2023-04-06T11:12:30;14.80;1.00
20174;DHT22;10246;50.620;7.232;2023-04-06T11:15:00;14.70;1.00
20174;DHT22;10246;50.620;7.232;2023-04-06T11:17:30;14.80;1.00
20174;DHT22;10246;50.620;7.232;2023-04-06T11:20:00;14.90;1.00
20174;DHT22;10246;50.620;7.232;2023-04-06T11:22:30;14.90;1.00
20174;DHT22;10246;50.620;7.232;2023-04-06T11:25:13;15.00;1.00
20174;DHT22;10246;50.620;7.232;2023-04-06T11:27:44;14.90;1.00
20174;DHT22;10246;50.620;7.232;2023-04-06T11:30:13;14.90;1.00
20174;DHT22;10246;50.620;7.232;2023-04-06T11:32:40;14.90;1.00
20174;DHT22;10246;50.620;7.232;2023-04-06T11:35:20;14.90;1.00
20174;DHT22;10246;50.620;7.232;2023-04-06T11:37:49;15.00;1.00
20174;DHT22;10246;50.620;7.232;2023-04-06T11:40:20;15.10;1.00
20174;DHT22;10246;50.620;7.232;2023-04-06T11:42:53;15.00;1.00
20174;DHT22;10246;50.620;7.232;2023-04-06T11:45:23;15.10;1.00
20174;DHT22;10246;50.620;7.232;2023-04-06T11:47:56;15.20;1.00
20174;DHT22;10246;50.620;7.232;2023-04-06T11:50:25;15.10;1.00
20174;DHT22;10246;50.620;7.232;2023-04-06T11:52:58;15.00;1.00
20174;DHT22;10246;50.620;7.232;2023-04-06T11:55:37;15.10;1.00
20174;DHT22;10246;50.620;7.232;2023-04-06T11:58:06;15.00;1.00
20174;DHT22;10246;50.620;7.232;2023-04-06T12:00:34;15.10;1.00
20174;DHT22;10246;50.620;7.232;2023-04-06T12:03:04;15.20;1.00
20174;DHT22;10246;50.620;7.232;2023-04-06T12:05:33;15.20;1.00
20174;DHT22;10246;50.620;7.232;2023-04-06T12:08:00;15.30;1.00
20174;DHT22;10246;50.620;7.232;2023-04-06T12:10:30;15.20;1.00
20174;DHT22;10246;50.620;7.232;2023-04-06T12:13:00;15.40;1.00
20174;DHT22;10246;50.620;7.232;2023-04-06T12:15:27;15.40;1.00
20174;DHT22;10246;50.620;7.232;2023-04-06T12:17:56;15.50;1.00
20174;DHT22;10246;50.620;7.232;2023-04-06T12:20:23;15.50;1.00
20174;DHT22;10246;50.620;7.232;2023-04-06T12:22:51;15.60;1.00
20174;DHT22;10246;50.620;7.232;2023-04-06T12:25:20;15.70;1.00
20174;DHT22;10246;50.620;7.232;2023-04-06T12:27:48;15.90;1.00
20174;DHT22;10246;50.620;7.232;2023-04-06T12:30:22;15.90;1.00
20174;DHT22;10246;50.620;7.232;2023-04-06T12:32:51;15.90;1.00
20174;DHT22;10246;50.620;7.232;2023-04-06T12:35:19;15.90;1.00
20174;DHT22;10246;50.620;7.232;2023-04-06T12:37:48;15.80;1.00
20174;DHT22;10246;50.620;7.232;2023-04-06T12:40:16;15.70;1.00
20174;DHT22;10246;50.620;7.232;2023-04-06T12:42:44;15.70;1.00
20174;DHT22;10246;50.620;7.232;2023-04-06T12:45:15;15.70;1.00
20174;DHT22;10246;50.620;7.232;2023-04-06T12:47:42;15.80;1.00
20174;DHT22;10246;50.620;7.232;2023-04-06T12:50:09;15.90;1.00
20174;DHT22;10246;50.620;7.232;2023-04-06T12:52:38;15.80;1.00
20174;DHT22;10246;50.620;7.232;2023-04-06T12:55:06;15.70;1.00
20174;DHT22;10246;50.620;7.232;2023-04-06T12:57:36;15.80;1.00
20174;DHT22;10246;50.620;7.232;2023-04-06T13:00:08;15.80;1.00
20174;DHT22;10246;50.620;7.232;2023-04-06T13:02:36;15.80;1.00
20174;DHT22;10246;50.620;7.232;2023-04-06T13:05:04;15.80;1.00
20174;DHT22;10246;50.620;7.232;2023-04-06T13:07:32;15.80;1.00
20174;DHT22;10246;50.620;7.232;2023-04-06T13:10:02;15.70;1.00
20174;DHT22;10246;50.620;7.232;2023-04-06T13:12:31;15.50;1.00
20174;DHT22;10246;50.620;7.232;2023-04-06T13:14:59;15.40;1.00
20174;DHT22;10246;50.620;7.232;2023-04-06T13:17:30;15.30;1.00
20174;DHT22;10246;50.620;7.232;2023-04-06T13:20:10;15.20;1.00
20174;DHT22;10246;50.620;7.232;2023-04-06T13:22:39;15.10;1.00
20174;DHT22;10246;50.620;7.232;2023-04-06T13:25:07;15.00;1.00
20174;DHT22;10246;50.620;7.232;2023-04-06T13:27:40;14.90;1.00
20174;DHT22;10246;50.620;7.232;2023-04-06T13:30:11;14.90;1.00
20174;DHT22;10246;50.620;7.232;2023-04-06T13:32:42;14.90;1.00
20174;DHT22;10246;50.620;7.232;2023-04-06T13:35:15;14.80;1.00
20174;DHT22;10246;50.620;7.232;2023-04-06T13:37:42;14.90;1.00
20174;DHT22;10246;50.620;7.232;2023-04-06T13:40:13;14.70;1.00
20174;DHT22;10246;50.620;7.232;2023-04-06T13:42:41;14.60;1.00
20174;DHT22;10246;50.620;7.232;2023-04-06T13:45:14;14.50;1.00
20174;DHT22;10246;50.620;7.232;2023-04-06T13:47:41;14.60;1.00
20174;DHT22;10246;50.620;7.232;2023-04-06T13:50:17;14.50;1.00
20174;DHT22;10246;50.620;7.232;2023-04-06T13:52:43;14.40;1.00
20174;DHT22;10246;50.620;7.232;2023-04-06T13:55:12;14.30;1.00
20174;DHT22;10246;50.620;7.232;2023-04-06T13:57:42;14.20;1.00
20174;DHT22;10246;50.620;7.232;2023-04-06T14:00:12;14.00;1.00
20174;DHT22;10246;50.620;7.232;2023-04-06T14:02:40;13.90;1.00
20174;DHT22;10246;50.620;7.232;2023-04-06T14:05:09;13.80;1.00
20174;DHT22;10246;50.620;7.232;2023-04-06T14:07:39;13.80;1.00
20174;DHT22;10246;50.620;7.232;2023-04-06T14:10:10;13.80;1.00
20174;DHT22;10246;50.620;7.232;2023-04-06T14:12:41;13.70;1.00
20174;DHT22;10246;50.620;7.232;2023-04-06T14:15:10;13.80;1.00
20174;DHT22;10246;50.620;7.232;2023-04-06T14:17:43;13.90;1.00
20174;DHT22;10246;50.620;7.232;2023-04-06T14:20:12;13.90;1.00
20174;DHT22;10246;50.620;7.232;2023-04-06T14:22:44;13.90;1.00
20174;DHT22;10246;50.620;7.232;2023-04-06T14:25:15;13.80;1.00
20174;DHT22;10246;50.620;7.232;2023-04-06T14:27:43;13.70;1.00
20174;DHT22;10246;50.620;7.232;2023-04-06T14:30:13;13.70;1.00
20174;DHT22;10246;50.620;7.232;2023-04-06T14:32:41;13.60;1.00
20174;DHT22;10246;50.620;7.232;2023-04-06T14:35:09;13.50;1.00
20174;DHT22;10246;50.620;7.232;2023-04-06T14:37:38;13.50;1.00
20174;DHT22;10246;50.620;7.232;2023-04-06T14:40:10;13.40;1.00
20174;DHT22;10246;50.620;7.232;2023-04-06T14:42:38;13.40;1.00
20174;DHT22;10246;50.620;7.232;2023-04-06T14:45:07;13.40;1.00
20174;DHT22;10246;50.620;7.232;2023-04-06T14:47:36;13.40;1.00
20174;DHT22;10246;50.620;7.232;2023-04-06T14:50:04;13.40;1.00
20174;DHT22;10246;50.620;7.232;2023-04-06T14:52:34;13.50;1.00
20174;DHT22;10246;50.620;7.232;2023-04-06T14:55:05;13.40;1.00
20174;DHT22;10246;50.620;7.232;2023-04-06T14:57:38;13.30;1.00
20174;DHT22;10246;50.620;7.232;2023-04-06T15:00:06;13.20;1.00
20174;DHT22;10246;50.620;7.232;2023-04-06T15:02:39;13.00;1.00
20174;DHT22;10246;50.620;7.232;2023-04-06T15:05:09;12.90;1.00
20174;DHT22;10246;50.620;7.232;2023-04-06T15:07:36;12.70;1.00
20174;DHT22;10246;50.620;7.232;2023-04-06T15:10:07;12.60;1.00
20174;DHT22;10246;50.620;7.232;2023-04-06T15:12:38;12.50;1.00
20174;DHT22;10246;50.620;7.232;2023-04-06T15:15:07;12.30;1.00
20174;DHT22;10246;50.620;7.232;2023-04-06T15:17:35;12.30;1.00
20174;DHT22;10246;50.620;7.232;2023-04-06T15:20:06;12.30;1.00
20174;DHT22;10246;50.620;7.232;2023-04-06T15:22:35;12.30;1.00
20174;DHT22;10246;50.620;7.232;2023-04-06T15:25:03;12.20;1.00
20174;DHT22;10246;50.620;7.232;2023-04-06T15:27:30;12.20;1.00
20174;DHT22;10246;50.620;7.232;2023-04-06T15:30:01;12.10;1.00
20174;DHT22;10246;50.620;7.232;2023-04-06T15:32:28;12.00;1.00
20174;DHT22;10246;50.620;7.232;2023-04-06T15:34:57;12.00;1.00
20174;DHT22;10246;50.620;7.232;2023-04-06T15:37:24;12.00;1.00
20174;DHT22;10246;50.620;7.232;2023-04-06T15:39:54;11.90;1.00
20174;DHT22;10246;50.620;7.232;2023-04-06T15:42:26;11.80;1.00
20174;DHT22;10246;50.620;7.232;2023-04-06T15:44:57;11.70;1.00
20174;DHT22;10246;50.620;7.232;2023-04-06T15:47:26;11.80;1.00
20174;DHT22;10246;50.620;7.232;2023-04-06T15:49:53;11.70;1.00
20174;DHT22;10246;50.620;7.232;2023-04-06T15:52:22;11.60;1.00
20174;DHT22;10246;50.620;7.232;2023-04-06T15:54:49;11.60;1.00
20174;DHT22;10246;50.620;7.232;2023-04-06T15:57:16;11.50;1.00
20174;DHT22;10246;50.620;7.232;2023-04-06T15:59:45;11.40;1.00
20174;DHT22;10246;50.620;7.232;2023-04-06T16:02:12;11.30;1.00
20174;DHT22;10246;50.620;7.232;2023-04-06T16:04:42;11.30;1.00
20174;DHT22;10246;50.620;7.232;2023-04-06T16:07:10;11.20;1.00